Time,TemperatureF,DewpointF,PressureIn,WindDirection,WindDirectionDegrees,WindSpeedMPH,WindSpeedGustMPH,Humidity,HourlyPrecipIn,Conditions,Clouds,dailyrainin,SoftwareType,DateUTC
2013-01-08 00:02:00,30.0,25.7,30.39,NW,315,0.0,0.0,84,0.00,,,0.00,meteohub,2013-01-08 05:02:00,
2013-01-08 00:12:00,28.9,25.3,30.38,NW,315,0.0,0.0,86,0.00,,,0.00,meteohub,2013-01-08 05:12:00,
2013-01-08 00:22:00,28.9,25.0,30.38,NW,315,0.0,0.0,85,0.00,,,0.00,meteohub,2013-01-08 05:22:00,
2013-01-08 00:32:00,28.9,25.3,30.38,NW,315,0.0,0.0,86,0.00,,,0.00,meteohub,2013-01-08 05:32:00,
2013-01-08 00:42:00,28.9,25.3,30.37,NW,315,0.0,0.0,86,0.00,,,0.00,meteohub,2013-01-08 05:42:00,
2013-01-08 00:52:00,28.9,25.3,30.37,NW,315,0.0,0.0,86,0.00,,,0.00,meteohub,2013-01-08 05:52:00,
2013-01-08 01:02:00,30.0,26.1,30.37,NW,315,0.0,0.0,85,0.00,,,0.00,meteohub,2013-01-08 06:02:00,
2013-01-08 01:12:00,30.0,25.5,30.36,NW,315,0.0,2.0,83,0.00,,,0.00,meteohub,2013-01-08 06:12:00,
2013-01-08 01:22:00,30.0,25.5,30.36,NW,315,0.0,2.0,83,0.00,,,0.00,meteohub,2013-01-08 06:22:00,
2013-01-08 01:32:00,28.9,25.3,30.36,NW,315,0.0,0.0,86,0.00,,,0.00,meteohub,2013-01-08 06:32:00,
2013-01-08 01:42:00,28.9,25.3,30.36,NW,315,0.0,0.0,86,0.00,,,0.00,meteohub,2013-01-08 06:42:00,
2013-01-08 01:52:00,28.9,24.8,30.37,NW,315,0.0,0.0,84,0.00,,,0.00,meteohub,2013-01-08 06:52:00,
2013-01-08 02:02:00,30.9,26.4,30.37,NW,315,0.0,0.0,83,0.00,,,0.00,meteohub,2013-01-08 07:02:00,
2013-01-08 02:12:00,30.9,26.6,30.37,NW,315,0.0,0.0,84,0.00,,,0.00,meteohub,2013-01-08 07:12:00,
2013-01-08 02:22:00,30.0,25.7,30.37,NW,315,0.0,0.0,84,0.00,,,0.00,meteohub,2013-01-08 07:22:00,
2013-01-08 02:32:00,30.0,26.6,30.37,SW,225,0.0,2.0,87,0.00,,,0.00,meteohub,2013-01-08 07:32:00,
2013-01-08 02:42:00,28.9,25.9,30.37,SW,225,0.0,2.0,88,0.00,,,0.00,meteohub,2013-01-08 07:42:00,
2013-01-08 02:52:00,30.0,26.6,30.36,SW,225,1.0,2.0,87,0.00,,,0.00,meteohub,2013-01-08 07:52:00,
2013-01-08 03:02:00,30.0,26.4,30.36,SW,225,0.0,2.0,86,0.00,,,0.00,meteohub,2013-01-08 08:02:00,
2013-01-08 03:12:00,28.9,26.1,30.36,SW,225,1.0,2.0,89,0.00,,,0.00,meteohub,2013-01-08 08:12:00,
2013-01-08 03:22:00,28.9,26.1,30.36,SW,225,0.0,2.0,89,0.00,,,0.00,meteohub,2013-01-08 08:22:00,
2013-01-08 03:32:00,28.9,26.1,30.35,SW,225,1.0,2.0,89,0.00,,,0.00,meteohub,2013-01-08 08:32:00,
2013-01-08 03:42:00,30.0,27.1,30.35,SW,225,0.0,2.0,89,0.00,,,0.00,meteohub,2013-01-08 08:42:00,
2013-01-08 03:52:00,30.0,26.6,30.35,SW,225,1.0,2.0,87,0.00,,,0.00,meteohub,2013-01-08 08:52:00,
2013-01-08 04:02:00,30.0,26.6,30.35,SSW,202,1.0,4.0,87,0.00,,,0.00,meteohub,2013-01-08 09:02:00,
2013-01-08 04:12:00,30.9,27.1,30.35,SSW,202,1.0,4.0,86,0.00,,,0.00,meteohub,2013-01-08 09:12:00,
2013-01-08 04:22:00,30.9,27.0,30.35,South,180,2.0,6.0,85,0.00,,,0.00,meteohub,2013-01-08 09:22:00,
2013-01-08 04:32:00,30.9,27.0,30.35,South,180,2.0,6.0,85,0.00,,,0.00,meteohub,2013-01-08 09:32:00,
2013-01-08 04:42:00,32.0,27.7,30.35,SW,225,1.0,6.0,84,0.00,,,0.00,meteohub,2013-01-08 09:42:00,
2013-01-08 04:52:00,32.0,27.7,30.36,SSW,202,1.0,5.0,84,0.00,,,0.00,meteohub,2013-01-08 09:52:00,
2013-01-08 05:02:00,32.0,27.7,30.36,SSW,202,4.0,4.0,84,0.00,,,0.00,meteohub,2013-01-08 10:02:00,
2013-01-08 05:12:00,32.0,27.7,30.36,SSW,202,2.0,6.0,84,0.00,,,0.00,meteohub,2013-01-08 10:12:00,
2013-01-08 05:22:00,30.9,27.0,30.36,SSW,202,2.0,4.0,85,0.00,,,0.00,meteohub,2013-01-08 10:22:00,
2013-01-08 05:32:00,30.9,27.0,30.36,South,180,1.0,2.0,85,0.00,,,0.00,meteohub,2013-01-08 10:32:00,
2013-01-08 05:42:00,32.0,28.0,30.36,South,180,2.0,6.0,85,0.00,,,0.00,meteohub,2013-01-08 10:42:00,
2013-01-08 05:52:00,33.1,28.4,30.36,SW,225,6.0,6.0,83,0.00,,,0.00,meteohub,2013-01-08 10:52:00,
2013-01-08 06:02:00,33.1,27.9,30.36,SSW,202,2.0,7.0,81,0.00,,,0.00,meteohub,2013-01-08 11:02:00,
2013-01-08 06:12:00,34.0,28.8,30.36,SSW,202,1.0,6.0,81,0.00,,,0.00,meteohub,2013-01-08 11:12:00,
2013-01-08 06:22:00,33.1,28.2,30.36,SE,135,0.0,5.0,82,0.00,,,0.00,meteohub,2013-01-08 11:22:00,
2013-01-08 06:32:00,33.1,28.4,30.36,South,180,0.0,5.0,83,0.00,,,0.00,meteohub,2013-01-08 11:32:00,
2013-01-08 06:42:00,33.1,28.4,30.37,South,180,1.0,5.0,83,0.00,,,0.00,meteohub,2013-01-08 11:42:00,
2013-01-08 06:52:00,33.1,28.8,30.37,South,180,2.0,6.0,84,0.00,,,0.00,meteohub,2013-01-08 11:52:00,
2013-01-08 07:02:00,34.0,29.3,30.37,South,180,1.0,7.0,83,0.00,,,0.00,meteohub,2013-01-08 12:02:00,
2013-01-08 07:12:00,34.0,29.7,30.38,South,180,1.0,6.0,84,0.00,,,0.00,meteohub,2013-01-08 12:12:00,
2013-01-08 07:22:00,34.0,29.7,30.38,South,180,1.0,6.0,84,0.00,,,0.00,meteohub,2013-01-08 12:22:00,
2013-01-08 07:32:00,34.0,29.7,30.39,SSW,202,1.0,6.0,84,0.00,,,0.00,meteohub,2013-01-08 12:32:00,
2013-01-08 07:42:00,33.1,29.1,30.39,SSW,202,2.0,6.0,85,0.00,,,0.00,meteohub,2013-01-08 12:42:00,
2013-01-08 07:52:00,33.1,29.1,30.40,South,180,2.0,5.0,85,0.00,,,0.00,meteohub,2013-01-08 12:52:00,
2013-01-08 08:02:00,33.1,28.8,30.40,South,180,2.0,4.0,84,0.00,,,0.00,meteohub,2013-01-08 13:02:00,
2013-01-08 08:12:00,34.0,30.0,30.40,SSW,202,0.0,6.0,85,0.00,,,0.00,meteohub,2013-01-08 13:12:00,
2013-01-08 08:22:00,34.0,29.7,30.40,South,180,2.0,2.0,84,0.00,,,0.00,meteohub,2013-01-08 13:22:00,
2013-01-08 08:32:00,34.0,29.7,30.40,West,270,2.0,2.0,84,0.00,,,0.00,meteohub,2013-01-08 13:32:00,
2013-01-08 08:42:00,34.0,29.7,30.41,West,270,1.0,2.0,84,0.00,,,0.00,meteohub,2013-01-08 13:42:00,
2013-01-08 08:52:00,35.1,30.2,30.41,SSW,202,0.0,2.0,82,0.00,,,0.00,meteohub,2013-01-08 13:52:00,
2013-01-08 09:02:00,35.1,29.8,30.41,SSW,202,2.0,2.0,81,0.00,,,0.00,meteohub,2013-01-08 14:02:00,
2013-01-08 09:12:00,36.0,30.4,30.41,SSW,202,1.0,2.0,80,0.00,,,0.00,meteohub,2013-01-08 14:12:00,
2013-01-08 09:22:00,37.0,30.6,30.42,SW,225,3.0,4.0,77,0.00,,,0.00,meteohub,2013-01-08 14:22:00,
2013-01-08 09:32:00,37.9,31.5,30.42,SSW,202,1.0,4.0,77,0.00,,,0.00,meteohub,2013-01-08 14:32:00,
2013-01-08 09:42:00,37.9,30.7,30.42,South,180,2.0,4.0,75,0.00,,,0.00,meteohub,2013-01-08 14:42:00,
2013-01-08 09:52:00,39.9,32.0,30.42,SSW,202,1.0,4.0,73,0.00,,,0.00,meteohub,2013-01-08 14:52:00,
2013-01-08 10:02:00,39.9,31.3,30.43,SSW,202,2.0,4.0,71,0.00,,,0.00,meteohub,2013-01-08 15:02:00,
2013-01-08 10:12:00,41.0,31.6,30.43,SSW,202,1.0,4.0,69,0.00,,,0.00,meteohub,2013-01-08 15:12:00,
2013-01-08 10:22:00,42.1,32.4,30.43,SSW,202,1.0,6.0,68,0.00,,,0.00,meteohub,2013-01-08 15:22:00,
2013-01-08 10:32:00,43.0,32.4,30.44,SW,225,6.0,7.0,66,0.00,,,0.00,meteohub,2013-01-08 15:32:00,
2013-01-08 10:42:00,43.0,32.0,30.44,SW,225,1.0,6.0,65,0.00,,,0.00,meteohub,2013-01-08 15:42:00,
2013-01-08 10:52:00,44.1,32.4,30.44,SW,225,2.0,8.0,63,0.00,,,0.00,meteohub,2013-01-08 15:52:00,
2013-01-08 11:02:00,45.0,32.7,30.43,WSW,247,2.0,5.0,62,0.00,,,0.00,meteohub,2013-01-08 16:02:00,
2013-01-08 11:12:00,45.0,32.4,30.43,SW,225,2.0,4.0,61,0.00,,,0.00,meteohub,2013-01-08 16:12:00,
2013-01-08 11:22:00,46.0,32.5,30.42,WSW,247,1.0,5.0,59,0.00,,,0.00,meteohub,2013-01-08 16:22:00,
2013-01-08 11:32:00,46.0,32.5,30.42,South,180,4.0,5.0,59,0.00,,,0.00,meteohub,2013-01-08 16:32:00,
2013-01-08 11:42:00,46.9,32.9,30.43,WNW,292,2.0,6.0,58,0.00,,,0.00,meteohub,2013-01-08 16:42:00,
2013-01-08 11:52:00,46.9,32.9,30.43,SSE,157,0.0,4.0,58,0.00,,,0.00,meteohub,2013-01-08 16:52:00,
2013-01-08 12:02:00,46.9,32.9,30.44,SW,225,3.0,5.0,58,0.00,,,0.00,meteohub,2013-01-08 17:02:00,
2013-01-08 12:12:00,46.9,32.5,30.43,West,270,1.0,5.0,57,0.00,,,0.00,meteohub,2013-01-08 17:12:00,
2013-01-08 12:22:00,48.0,33.1,30.42,South,180,4.0,5.0,56,0.00,,,0.00,meteohub,2013-01-08 17:22:00,
2013-01-08 12:32:00,48.0,33.1,30.42,SW,225,0.0,6.0,56,0.00,,,0.00,meteohub,2013-01-08 17:32:00,
2013-01-08 12:42:00,48.0,32.5,30.41,South,180,0.0,4.0,55,0.00,,,0.00,meteohub,2013-01-08 17:42:00,
2013-01-08 12:52:00,48.9,32.5,30.41,West,270,0.0,3.0,53,0.00,,,0.00,meteohub,2013-01-08 17:52:00,
2013-01-08 13:02:00,48.9,32.5,30.41,SW,225,2.0,6.0,53,0.00,,,0.00,meteohub,2013-01-08 18:02:00,
2013-01-08 13:12:00,50.0,32.5,30.41,SW,225,0.0,4.0,51,0.00,,,0.00,meteohub,2013-01-08 18:12:00,
2013-01-08 13:22:00,50.0,32.2,30.41,SW,225,2.0,4.0,50,0.00,,,0.00,meteohub,2013-01-08 18:22:00,
2013-01-08 13:32:00,50.0,32.2,30.42,SW,225,0.0,3.0,50,0.00,,,0.00,meteohub,2013-01-08 18:32:00,
2013-01-08 13:42:00,50.0,32.5,30.41,SE,135,1.0,2.0,51,0.00,,,0.00,meteohub,2013-01-08 18:42:00,
2013-01-08 13:52:00,50.0,32.5,30.41,SE,135,2.0,2.0,51,0.00,,,0.00,meteohub,2013-01-08 18:52:00,
2013-01-08 14:12:00,52.0,34.0,30.42,SE,135,1.0,4.0,50,0.00,,,0.00,meteohub,2013-01-08 19:12:00,
2013-01-08 14:32:00,52.0,32.9,30.42,SE,135,0.0,3.0,48,0.00,,,0.00,meteohub,2013-01-08 19:32:00,
2013-01-08 14:42:00,53.1,33.4,30.42,SSE,157,2.0,3.0,47,0.00,,,0.00,meteohub,2013-01-08 19:42:00,
2013-01-08 14:52:00,54.0,33.1,30.43,South,180,1.0,3.0,45,0.00,,,0.00,meteohub,2013-01-08 19:52:00,
2013-01-08 15:02:00,54.0,33.1,30.44,South,180,2.0,4.0,45,0.00,,,0.00,meteohub,2013-01-08 20:02:00,
2013-01-08 15:12:00,53.1,32.9,30.44,SE,135,1.0,4.0,46,0.00,,,0.00,meteohub,2013-01-08 20:12:00,
2013-01-08 15:22:00,53.1,32.9,30.44,North,0,1.0,4.0,46,0.00,,,0.00,meteohub,2013-01-08 20:22:00,
2013-01-08 15:32:00,53.1,33.4,30.44,SW,225,2.0,4.0,47,0.00,,,0.00,meteohub,2013-01-08 20:32:00,
2013-01-08 15:42:00,53.1,32.9,30.43,SE,135,1.0,2.0,46,0.00,,,0.00,meteohub,2013-01-08 20:42:00,
2013-01-08 15:52:00,53.1,32.9,30.43,SE,135,1.0,2.0,46,0.00,,,0.00,meteohub,2013-01-08 20:52:00,
2013-01-08 16:02:00,52.0,34.0,30.43,SE,135,2.0,4.0,50,0.00,,,0.00,meteohub,2013-01-08 21:02:00,
2013-01-08 16:12:00,51.1,33.1,30.43,ESE,112,2.0,5.0,50,0.00,,,0.00,meteohub,2013-01-08 21:12:00,
2013-01-08 16:22:00,51.1,33.1,30.42,ESE,112,2.0,4.0,50,0.00,,,0.00,meteohub,2013-01-08 21:22:00,
2013-01-08 16:32:00,51.1,33.1,30.42,East,90,2.0,4.0,50,0.00,,,0.00,meteohub,2013-01-08 21:32:00,
2013-01-08 16:42:00,51.1,33.6,30.42,ESE,112,2.0,4.0,51,0.00,,,0.00,meteohub,2013-01-08 21:42:00,
2013-01-08 16:52:00,50.0,32.5,30.42,ESE,112,2.0,4.0,51,0.00,,,0.00,meteohub,2013-01-08 21:52:00,
2013-01-08 17:02:00,50.0,33.6,30.42,SE,135,2.0,2.0,53,0.00,,,0.00,meteohub,2013-01-08 22:02:00,
2013-01-08 17:12:00,48.9,33.1,30.42,SE,135,0.0,2.0,54,0.00,,,0.00,meteohub,2013-01-08 22:12:00,
2013-01-08 17:22:00,48.9,34.3,30.42,SE,135,0.0,2.0,57,0.00,,,0.00,meteohub,2013-01-08 22:22:00,
2013-01-08 17:32:00,48.9,34.3,30.42,SE,135,2.0,2.0,57,0.00,,,0.00,meteohub,2013-01-08 22:32:00,
2013-01-08 17:42:00,48.0,34.3,30.41,SE,135,1.0,2.0,59,0.00,,,0.00,meteohub,2013-01-08 22:42:00,
2013-01-08 17:52:00,46.9,34.2,30.42,SE,135,0.0,2.0,61,0.00,,,0.00,meteohub,2013-01-08 22:52:00,
2013-01-08 18:02:00,46.0,34.2,30.41,SE,135,0.0,2.0,63,0.00,,,0.00,meteohub,2013-01-08 23:02:00,
2013-01-08 18:12:00,45.0,34.0,30.41,SE,135,0.0,2.0,65,0.00,,,0.00,meteohub,2013-01-08 23:12:00,
2013-01-08 18:22:00,45.0,34.3,30.41,SE,135,0.0,0.0,66,0.00,,,0.00,meteohub,2013-01-08 23:22:00,
2013-01-08 18:32:00,45.0,34.7,30.41,SE,135,0.0,0.0,67,0.00,,,0.00,meteohub,2013-01-08 23:32:00,
2013-01-08 18:42:00,45.0,34.7,30.42,SE,135,0.0,0.0,67,0.00,,,0.00,meteohub,2013-01-08 23:42:00,
2013-01-08 18:52:00,45.0,35.1,30.42,SE,135,0.0,0.0,68,0.00,,,0.00,meteohub,2013-01-08 23:52:00,
2013-01-08 19:02:00,44.1,34.2,30.42,SE,135,0.0,0.0,68,0.00,,,0.00,meteohub,2013-01-09 00:02:00,
2013-01-08 19:12:00,44.1,34.2,30.42,SE,135,0.0,1.0,68,0.00,,,0.00,meteohub,2013-01-09 00:12:00,
2013-01-08 19:22:00,44.1,34.2,30.42,SE,135,0.0,2.0,68,0.00,,,0.00,meteohub,2013-01-09 00:22:00,
2013-01-08 19:32:00,44.1,34.2,30.41,SE,135,1.0,2.0,68,0.00,,,0.00,meteohub,2013-01-09 00:32:00,
2013-01-08 19:42:00,44.1,34.5,30.41,SE,135,0.0,2.0,69,0.00,,,0.00,meteohub,2013-01-09 00:42:00,
2013-01-08 19:52:00,43.0,34.2,30.41,SE,135,0.0,1.0,71,0.00,,,0.00,meteohub,2013-01-09 00:52:00,
2013-01-08 20:02:00,43.0,34.2,30.40,SE,135,0.0,0.0,71,0.00,,,0.00,meteohub,2013-01-09 01:02:00,
2013-01-08 20:12:00,43.0,34.2,30.40,SE,135,0.0,1.0,71,0.00,,,0.00,meteohub,2013-01-09 01:12:00,
2013-01-08 20:22:00,43.0,34.5,30.39,SE,135,2.0,2.0,72,0.00,,,0.00,meteohub,2013-01-09 01:22:00,
2013-01-08 20:32:00,43.0,34.2,30.39,SE,135,0.0,2.0,71,0.00,,,0.00,meteohub,2013-01-09 01:32:00,
2013-01-08 20:42:00,43.0,34.5,30.39,SE,135,0.0,1.0,72,0.00,,,0.00,meteohub,2013-01-09 01:42:00,
2013-01-08 20:52:00,42.1,34.0,30.40,SE,135,0.0,1.0,73,0.00,,,0.00,meteohub,2013-01-09 01:52:00,
2013-01-08 21:02:00,42.1,34.3,30.40,SE,135,0.0,1.0,74,0.00,,,0.00,meteohub,2013-01-09 02:02:00,
2013-01-08 21:12:00,42.1,34.0,30.41,South,180,2.0,2.0,73,0.00,,,0.00,meteohub,2013-01-09 02:12:00,
2013-01-08 21:42:00,41.0,34.0,30.41,South,180,0.0,2.0,76,0.00,,,0.00,meteohub,2013-01-09 02:42:00,
2013-01-08 21:52:00,41.0,34.0,30.41,South,180,0.0,1.0,76,0.00,,,0.00,meteohub,2013-01-09 02:52:00,
2013-01-08 22:02:00,41.0,34.0,30.40,South,180,0.0,2.0,76,0.00,,,0.00,meteohub,2013-01-09 03:02:00,
2013-01-08 22:12:00,41.0,34.3,30.40,South,180,1.0,2.0,77,0.00,,,0.00,meteohub,2013-01-09 03:12:00,
2013-01-08 22:22:00,39.9,33.6,30.40,South,180,0.0,1.0,78,0.00,,,0.00,meteohub,2013-01-09 03:22:00,
2013-01-08 22:32:00,39.9,33.6,30.40,South,180,0.0,1.0,78,0.00,,,0.00,meteohub,2013-01-09 03:32:00,
2013-01-08 22:42:00,39.9,33.6,30.40,South,180,0.0,2.0,78,0.00,,,0.00,meteohub,2013-01-09 03:42:00,
2013-01-08 22:52:00,39.9,33.6,30.40,South,180,0.0,2.0,78,0.00,,,0.00,meteohub,2013-01-09 03:52:00,
2013-01-08 23:02:00,39.0,33.1,30.39,South,180,0.0,2.0,79,0.00,,,0.00,meteohub,2013-01-09 04:02:00,
2013-01-08 23:12:00,39.0,33.4,30.39,South,180,0.0,2.0,80,0.00,,,0.00,meteohub,2013-01-09 04:12:00,
2013-01-08 23:22:00,39.0,33.1,30.39,South,180,0.0,1.0,79,0.00,,,0.00,meteohub,2013-01-09 04:22:00,
2013-01-08 23:32:00,39.0,33.1,30.39,South,180,0.0,0.0,79,0.00,,,0.00,meteohub,2013-01-09 04:32:00,
2013-01-08 23:42:00,39.0,33.1,30.38,South,180,0.0,2.0,79,0.00,,,0.00,meteohub,2013-01-09 04:42:00,
2013-01-08 23:52:00,39.0,33.4,30.38,South,180,0.0,2.0,80,0.00,,,0.00,meteohub,2013-01-09 04:52:00,